Gatesville, NC (27938)

6:01 AM EST on December 25, 2014 (GMT -0500)
GPKandSon | Change Station
CLOSE
Current Station
Personal Weather Station
Location: Corapeake, NC
Elevation: 45 ft
Nearby Weather Stations

Elev 45 ft 36.52 °N, 76.58 °W | Updated 7 minutes ago

Rain
Rain
63.1 °F
Feels Like 63.1 °F
N
1.0
Wind Variable Wind from SSW
Gusts 4.0 mph

Today
High -- | Low -- °F
--% Chance of Precip.
Yesterday
High -- | Low -- °F
Precip. -- in
7:16 AM 4:57 PM
Waxing Crescent, 15% visible
Pressure 29.71 in
Visibility 10.0 miles
Clouds Scattered Clouds 9000 ft
Overcast 11000 ft
Dew Point 62 °F
Humidity 97%
Rainfall 0.02 in
Snow Depth Not available.
UV 0 out of 12
Pollen .10 out of 12
Air Quality Not available.
Flu Activity Not available.
METAR KSFQ 251035Z AUTO 21004KT 10SM -DZ SCT090 OVC110 17/16 A2971 RMK AO2 T01720159

More Conditions Fewer Conditions

Pressure 29.71 in
Visibility 10.0 miles
Clouds Scattered Clouds 9000 ft
Overcast 11000 ft
Dew Point 62 °F
Humidity 97%
Rainfall 0.02 in
Snow Depth Not available.
UV 0 out of 12
Pollen .10 out of 12
Air Quality Not available.
Flu Activity Not available.
METAR KSFQ 251035Z AUTO 21004KT 10SM -DZ SCT090 OVC110 17/16 A2971 RMK AO2 T01720159

More Conditions Fewer Conditions

10-Day Weather Forecast

Almanac

Astronomy

Dec. 25, 2014 Rise Set
Actual Time
Civil Twilight
Nautical Twilight
Astronomical Twilight
Moon
Length of Visible Light
Length of Day
Tomorrow will be .
, % of the Moon is Illuminated

Today's Extremes

State Highs State Lows

Community

WunderPhotos

Upload Photos

1,780,259 photos uploaded!

WunderBlogs® & News

Nearby

Air Quality

  Air Quality AQ Index Pollutant
Not available.

Snow Depth

Station Depth Elevation

Earthquake Activity

City Distance Mag. Time & Date
Minimum magnitude displayed is 2.5.

Coastal Water Temperatures

Place Temperature

Nearby Weather Stations